KDVK

Stuart Powell Field Airport

Danville, Kentucky, USA
METAR KDVK 212135Z AUTO 22009KT 10SM SCT009 SCT045 BKN050 25/22 A2978 RMK AO2
Observed Flight Rules
Jun-21 @ 21:35 UTC (31 minutes ago) Visual Flight Rules
Wind Visibility Clouds
220° at 9 knots 10 miles
  • Scattered at 900' AGL
  • Scattered at 4,500' AGL
  • Broken at 5,000' AGL
Temperatures Readings
Current 25°C / 77°F
Dewpoint 22°C / 72°F
Humidity 83%
Altimeter 29.78" Hg
Pressure 1008 hPa
Elevation 312
METAR KDVK 212135Z AUTO 22009KT 10SM SCT009 SCT045 BKN050 25/22 A2978 RMK AO2
Observed Flight Rules
Jun-21 @ 21:35 UTC
(31 minutes ago)
VFR
Wind Visibility
220° at 9 knots 10 miles
Clouds
  • Scattered at 900' AGL
  • Scattered at 4,500' AGL
  • Broken at 5,000' AGL
Temperature Dewpoint
25°C / 77°F 22°C / 72°F
Humidity Altimeter Pressure
83% 29.78" Hg 1008 hPa